Time;durP1;ratioP1;P1;durP2;ratioP2;P2;SDS_P1;SDS_P2;PMS_P1;PMS_P2;Temp;Humidity;BMP_temperature;BMP_pressure;BME280_temperature;BME280_humidity;BME280_pressure;Samples;Min_cycle;Max_cycle;Signal;HPM_P1;HPM_P2
2022/09/22 00:00:35;;;;;;;7.30;6.30;;;12.00;1.00;;;;;;4986840;28;20218;-60
2022/09/22 00:03:01;;;;;;;8.87;6.67;;;12.00;1.00;;;;;;4987996;28;20190;-61
2022/09/22 00:05:26;;;;;;;7.20;6.60;;;12.00;1.00;;;;;;4988754;28;20593;-61
2022/09/22 00:07:53;;;;;;;7.60;6.53;;;12.00;1.00;;;;;;4985931;28;20200;-61
2022/09/22 00:10:20;;;;;;;6.93;6.30;;;12.00;1.00;;;;;;4988587;28;20200;-61
2022/09/22 00:12:49;;;;;;;7.07;6.33;;;11.90;1.00;;;;;;4987544;28;20539;-60
2022/09/22 00:15:16;;;;;;;6.80;6.20;;;12.00;1.00;;;;;;4984081;28;20511;-61
2022/09/22 00:17:42;;;;;;;6.80;6.20;;;11.90;1.00;;;;;;4988824;28;20419;-60
2022/09/22 00:20:08;;;;;;;6.13;5.53;;;11.90;1.00;;;;;;4987067;28;20480;-61
2022/09/22 00:22:35;;;;;;;7.50;6.80;;;11.80;1.00;;;;;;4989298;28;20253;-60
2022/09/22 00:25:01;;;;;;;6.97;6.37;;;11.80;1.00;;;;;;4988477;28;20457;-62
2022/09/22 00:27:26;;;;;;;6.63;5.83;;;11.80;1.00;;;;;;4990206;28;20424;-61
2022/09/22 00:29:52;;;;;;;7.27;6.57;;;11.70;1.00;;;;;;4988003;28;20896;-61
2022/09/22 00:32:18;;;;;;;7.30;6.60;;;11.70;1.00;;;;;;4985356;28;20202;-61
2022/09/22 00:34:43;;;;;;;6.83;6.17;;;11.70;1.00;;;;;;4987236;28;20194;-61
2022/09/22 00:37:10;;;;;;;6.93;6.23;;;11.60;1.00;;;;;;4980660;28;20202;-60
2022/09/22 00:39:35;;;;;;;8.17;6.50;;;11.70;1.00;;;;;;4990033;28;20798;-60
2022/09/22 00:42:03;;;;;;;8.60;7.70;;;11.60;1.00;;;;;;4993395;28;20457;-61
2022/09/22 00:44:28;;;;;;;7.13;6.50;;;11.60;1.00;;;;;;4991459;28;20234;-61
2022/09/22 00:47:12;;;;;;;6.10;5.50;;;11.60;1.00;;;;;;4991887;28;21169;-61
2022/09/22 00:49:59;;;;;;;7.37;6.40;;;11.50;1.00;;;;;;4997654;28;20181;-61
2022/09/22 00:52:35;;;;;;;6.80;6.10;;;11.40;1.00;;;;;;4992223;28;20459;-61
2022/09/22 00:55:05;;;;;;;7.30;6.30;;;11.40;1.00;;;;;;4991165;28;20430;-62
2022/09/22 00:57:35;;;;;;;5.67;5.17;;;11.40;1.00;;;;;;4992403;28;21204;-61
2022/09/22 01:00:04;;;;;;;9.27;6.00;;;11.40;1.00;;;;;;4989377;28;20811;-61
2022/09/22 01:02:30;;;;;;;5.97;5.37;;;11.40;1.00;;;;;;4987400;28;20532;-62
2022/09/22 01:04:56;;;;;;;7.33;6.33;;;11.40;1.00;;;;;;4992858;28;21059;-61
2022/09/22 01:07:25;;;;;;;6.40;5.80;;;11.40;1.00;;;;;;4987166;28;20245;-61
2022/09/22 01:09:52;;;;;;;8.10;5.23;;;11.30;1.00;;;;;;4989986;28;20190;-61
2022/09/22 01:12:18;;;;;;;5.73;5.20;;;11.30;1.00;;;;;;4995836;28;20464;-61
2022/09/22 01:15:06;;;;;;;7.90;6.73;;;11.30;1.00;;;;;;4992128;28;20464;-60
2022/09/22 01:17:43;;;;;;;6.47;5.87;;;11.30;1.00;;;;;;4993573;28;20415;-60
2022/09/22 01:20:42;;;;;;;6.63;5.83;;;11.30;1.00;;;;;;4992189;28;20468;-61
2022/09/22 01:23:53;;;;;;;11.50;5.80;;;11.30;1.00;;;;;;4991963;28;20460;-61
2022/09/22 01:26:18;;;;;;;5.80;5.30;;;11.30;1.00;;;;;;4987204;28;20432;-61
2022/09/22 01:29:12;;;;;;;6.23;5.73;;;11.20;1.00;;;;;;4994376;28;20494;-61
2022/09/22 01:32:05;;;;;;;5.77;5.27;;;11.20;1.00;;;;;;4990129;28;20178;-61
2022/09/22 01:34:43;;;;;;;7.33;5.47;;;11.10;1.00;;;;;;4975831;28;20447;-61
2022/09/22 01:37:12;;;;;;;5.93;5.33;;;11.10;1.00;;;;;;4992129;28;20506;-61
2022/09/22 01:40:19;;;;;;;5.73;5.07;;;11.00;1.00;;;;;;4992665;28;20439;-62
2022/09/22 01:42:51;;;;;;;5.50;5.00;;;11.00;1.00;;;;;;4909763;29;20443;-61
2022/09/22 01:45:21;;;;;;;6.10;5.50;;;10.90;1.00;;;;;;4911142;29;20560;-62
2022/09/22 01:47:54;;;;;;;6.90;6.20;;;10.90;1.00;;;;;;4950902;28;20446;-60
2022/09/22 01:50:38;;;;;;;5.60;4.80;;;10.90;1.00;;;;;;4985430;28;20495;-61
2022/09/22 01:53:13;;;;;;;5.63;5.13;;;10.80;1.00;;;;;;4991336;28;20467;-60
2022/09/22 01:55:41;;;;;;;5.60;5.10;;;10.80;1.00;;;;;;4992236;28;20963;-61
2022/09/22 01:58:31;;;;;;;5.33;4.70;;;10.80;1.00;;;;;;4989004;28;20477;-61
2022/09/22 02:01:09;;;;;;;5.50;4.87;;;10.80;1.00;;;;;;4989535;28;20832;-60
2022/09/22 02:03:49;;;;;;;5.00;4.60;;;10.70;1.00;;;;;;4989330;28;20826;-60
2022/09/22 02:06:21;;;;;;;5.63;4.73;;;10.60;1.00;;;;;;4995335;28;20452;-61
2022/09/22 02:09:11;;;;;;;8.67;4.90;;;10.60;1.00;;;;;;4992064;28;20449;-61
2022/09/22 02:11:37;;;;;;;5.90;5.30;;;10.50;1.00;;;;;;4977026;28;20454;-61
2022/09/22 02:14:04;;;;;;;6.63;4.93;;;10.50;1.00;;;;;;4987770;28;20873;-61
2022/09/22 02:16:30;;;;;;;5.70;5.20;;;10.50;1.00;;;;;;4990605;28;20445;-61
2022/09/22 02:18:59;;;;;;;5.50;4.70;;;10.50;1.00;;;;;;4990086;28;20550;-61
2022/09/22 02:21:28;;;;;;;5.87;5.03;;;10.50;1.00;;;;;;4992202;28;20456;-60
2022/09/22 02:23:54;;;;;;;5.30;4.80;;;10.50;1.00;;;;;;4988416;28;20473;-61
2022/09/22 02:26:24;;;;;;;5.30;4.80;;;10.40;1.00;;;;;;4992464;28;20477;-60
2022/09/22 02:28:54;;;;;;;6.50;5.90;;;10.30;1.00;;;;;;4988966;28;20600;-61
2022/09/22 02:31:23;;;;;;;6.37;5.30;;;10.40;1.00;;;;;;4991822;28;20460;-61
2022/09/22 02:33:50;;;;;;;5.87;5.17;;;10.40;1.00;;;;;;4989866;28;20472;-61
2022/09/22 02:36:19;;;;;;;6.60;5.60;;;10.30;1.00;;;;;;4988630;28;20450;-61
2022/09/22 02:39:37;;;;;;;5.50;5.10;;;10.30;1.00;;;;;;4987910;28;20469;-61
2022/09/22 02:42:23;;;;;;;5.80;5.20;;;10.20;1.00;;;;;;4987387;28;20451;-61
2022/09/22 02:45:13;;;;;;;6.10;5.53;;;10.20;1.00;;;;;;4989642;28;20465;-61
2022/09/22 02:47:43;;;;;;;5.87;5.20;;;10.30;1.00;;;;;;4991665;28;20475;-61
2022/09/22 02:50:11;;;;;;;6.07;5.47;;;10.20;1.00;;;;;;4987966;28;20818;-61
2022/09/22 02:52:38;;;;;;;8.60;7.13;;;10.10;1.00;;;;;;4990732;28;20457;-60
2022/09/22 02:55:04;;;;;;;6.60;5.83;;;10.10;1.00;;;;;;4990375;28;20439;-61
2022/09/22 02:57:30;;;;;;;6.70;5.67;;;10.00;1.00;;;;;;4987595;28;20527;-61
2022/09/22 02:59:56;;;;;;;8.27;5.93;;;10.00;1.00;;;;;;4989877;28;20586;-61
2022/09/22 03:02:21;;;;;;;12.50;6.43;;;10.00;1.00;;;;;;4987244;28;20196;-61
2022/09/22 03:04:47;;;;;;;5.87;5.37;;;10.00;1.00;;;;;;5001063;28;20214;-61
2022/09/22 03:07:12;;;;;;;6.20;5.70;;;9.90;1.00;;;;;;4998817;28;20643;-60
2022/09/22 03:09:38;;;;;;;7.80;7.00;;;9.90;1.00;;;;;;4989657;28;20280;-61
2022/09/22 03:12:04;;;;;;;6.30;5.70;;;9.90;1.00;;;;;;4989924;28;20202;-60
2022/09/22 03:14:29;;;;;;;8.60;6.57;;;9.90;1.00;;;;;;4990433;28;20186;-60
2022/09/22 03:16:55;;;;;;;6.43;5.80;;;9.80;1.00;;;;;;4986193;28;20465;-61
2022/09/22 03:19:21;;;;;;;6.67;6.00;;;9.80;1.00;;;;;;4990014;28;20261;-61
2022/09/22 03:21:46;;;;;;;6.50;5.90;;;9.80;1.00;;;;;;4987928;28;20208;-61
2022/09/22 03:24:12;;;;;;;6.00;5.43;;;9.80;1.00;;;;;;4984599;28;20197;-61
2022/09/22 03:26:37;;;;;;;7.57;6.57;;;9.70;1.00;;;;;;4990092;28;20684;-60
2022/09/22 03:29:03;;;;;;;8.07;7.07;;;9.60;1.00;;;;;;4972975;28;20194;-61
2022/09/22 03:31:28;;;;;;;6.67;6.07;;;9.70;21.10;;;;;;4983804;28;20581;-61
2022/09/22 03:33:54;;;;;;;13.50;7.33;;;9.70;17.30;;;;;;4988584;28;20221;-60
2022/09/22 03:36:20;;;;;;;9.23;7.00;;;9.70;17.80;;;;;;4989589;28;20245;-61
2022/09/22 03:38:45;;;;;;;8.60;7.37;;;9.60;23.20;;;;;;4990883;28;20602;-61
2022/09/22 03:41:11;;;;;;;25.33;10.00;;;9.70;28.70;;;;;;4987846;28;20433;-61
2022/09/22 03:43:37;;;;;;;8.27;7.40;;;9.60;35.00;;;;;;4988505;28;20369;-61
2022/09/22 03:46:02;;;;;;;10.20;6.57;;;9.60;42.10;;;;;;4984713;28;20535;-61
2022/09/22 03:48:29;;;;;;;7.87;7.07;;;9.70;55.10;;;;;;4987369;28;20547;-61
2022/09/22 03:50:56;;;;;;;7.67;6.13;;;9.50;50.70;;;;;;4988166;28;20202;-60
2022/09/22 03:53:22;;;;;;;15.20;6.40;;;9.60;54.40;;;;;;4990260;28;20423;-61
2022/09/22 03:55:49;;;;;;;7.93;7.23;;;9.60;55.90;;;;;;4982274;28;20537;-61
2022/09/22 03:58:14;;;;;;;10.30;7.20;;;9.60;53.00;;;;;;4988595;28;20435;-60
2022/09/22 04:00:40;;;;;;;13.33;8.20;;;9.50;53.30;;;;;;4988286;28;20476;-61
2022/09/22 04:03:06;;;;;;;18.27;8.40;;;9.50;54.90;;;;;;4989964;28;21008;-61
2022/09/22 04:05:31;;;;;;;7.23;6.30;;;9.50;59.30;;;;;;4967940;28;20593;-62
2022/09/22 04:07:58;;;;;;;18.30;7.50;;;9.60;63.40;;;;;;4989439;28;20192;-61
2022/09/22 04:10:24;;;;;;;16.83;6.70;;;9.50;58.40;;;;;;4986832;28;20193;-61
2022/09/22 04:12:49;;;;;;;7.67;6.53;;;9.60;63.90;;;;;;4988902;28;20570;-60
2022/09/22 04:15:15;;;;;;;7.30;6.60;;;9.50;62.40;;;;;;4988591;28;20485;-60
2022/09/22 04:17:41;;;;;;;9.40;7.87;;;9.50;66.10;;;;;;4985452;28;20246;-61
2022/09/22 04:20:07;;;;;;;11.17;7.27;;;9.50;72.20;;;;;;4988962;28;20304;-62
2022/09/22 04:22:33;;;;;;;9.03;6.07;;;9.50;75.70;;;;;;4989936;28;20240;-61
2022/09/22 04:24:59;;;;;;;9.20;5.83;;;9.50;83.20;;;;;;4987890;28;20453;-61
2022/09/22 04:27:25;;;;;;;6.80;6.20;;;9.50;69.60;;;;;;4990280;28;20942;-60
2022/09/22 04:29:50;;;;;;;7.10;6.40;;;9.50;69.90;;;;;;4988154;28;20460;-60
2022/09/22 04:32:16;;;;;;;7.50;6.20;;;9.40;68.80;;;;;;4979927;28;20186;-61
2022/09/22 04:34:42;;;;;;;6.20;5.70;;;9.30;68.50;;;;;;4987696;28;20182;-60
2022/09/22 04:37:09;;;;;;;6.23;5.63;;;9.30;69.30;;;;;;4988936;28;20970;-60
2022/09/22 04:39:35;;;;;;;6.90;6.07;;;9.30;80.40;;;;;;4987545;28;20571;-60
2022/09/22 04:42:02;;;;;;;9.07;8.13;;;9.30;82.10;;;;;;4971443;28;20427;-60
2022/09/22 04:44:27;;;;;;;12.57;6.90;;;9.30;74.20;;;;;;4989104;28;20970;-61
2022/09/22 04:46:54;;;;;;;6.43;5.73;;;9.30;78.90;;;;;;4988647;28;20484;-60
2022/09/22 04:49:20;;;;;;;7.20;6.50;;;9.30;79.80;;;;;;4990213;28;20272;-60
2022/09/22 04:51:46;;;;;;;7.10;5.93;;;9.30;71.90;;;;;;4991074;28;20508;-61
2022/09/22 04:54:13;;;;;;;6.80;6.13;;;9.30;71.70;;;;;;4988387;28;20198;-60
2022/09/22 04:56:40;;;;;;;7.20;6.47;;;9.30;68.50;;;;;;4986122;28;20431;-60
2022/09/22 04:59:06;;;;;;;6.50;5.87;;;9.30;59.00;;;;;;4989478;28;20834;-61
2022/09/22 05:01:32;;;;;;;7.50;6.80;;;9.30;55.70;;;;;;4989555;28;20424;-60
2022/09/22 05:03:57;;;;;;;8.03;6.00;;;9.30;55.30;;;;;;4989646;28;20277;-61
2022/09/22 05:06:23;;;;;;;10.30;6.80;;;9.30;55.00;;;;;;4988900;28;20989;-59
2022/09/22 05:08:48;;;;;;;12.17;6.97;;;9.30;54.10;;;;;;4987137;28;20178;-60
2022/09/22 05:11:14;;;;;;;9.00;5.87;;;9.40;55.80;;;;;;4990244;28;20188;-61
2022/09/22 05:13:40;;;;;;;10.93;5.73;;;9.40;55.70;;;;;;4988016;28;20184;-61
2022/09/22 05:16:07;;;;;;;15.53;6.53;;;9.50;52.40;;;;;;4991524;28;20178;-61
2022/09/22 05:18:33;;;;;;;9.17;6.27;;;9.50;43.10;;;;;;4985606;28;20236;-61
2022/09/22 05:20:59;;;;;;;7.47;5.53;;;9.60;45.60;;;;;;4987205;28;20443;-61
2022/09/22 05:23:25;;;;;;;6.83;6.13;;;9.60;37.90;;;;;;4992066;28;20448;-60
2022/09/22 05:25:50;;;;;;;9.90;7.43;;;9.70;32.80;;;;;;4989751;28;20428;-60
2022/09/22 05:28:16;;;;;;;8.00;5.80;;;9.80;32.20;;;;;;4993522;28;20656;-60
2022/09/22 05:30:41;;;;;;;6.60;5.97;;;9.80;22.20;;;;;;4990414;28;20198;-60
2022/09/22 05:33:07;;;;;;;6.03;5.40;;;9.80;21.10;;;;;;4987422;28;20197;-62
2022/09/22 05:35:32;;;;;;;6.60;6.00;;;9.90;6.60;;;;;;4990273;28;20197;-61
2022/09/22 05:37:58;;;;;;;10.00;5.13;;;9.90;7.40;;;;;;4992197;28;20232;-61
2022/09/22 05:40:25;;;;;;;7.23;6.50;;;9.90;6.60;;;;;;4992657;28;20248;-61
2022/09/22 05:42:52;;;;;;;7.10;6.40;;;9.90;2.70;;;;;;4993308;28;20308;-61
2022/09/22 05:45:19;;;;;;;6.33;5.73;;;9.90;2.70;;;;;;4998207;28;20938;-61
2022/09/22 05:47:44;;;;;;;8.07;6.60;;;10.10;1.00;;;;;;4993203;28;20455;-60
2022/09/22 05:50:12;;;;;;;8.30;5.80;;;10.10;1.00;;;;;;4992547;28;20962;-60
2022/09/22 05:52:38;;;;;;;7.80;6.20;;;10.20;1.00;;;;;;4993016;28;20194;-61
2022/09/22 05:55:05;;;;;;;7.00;5.60;;;10.30;1.00;;;;;;4993697;28;20431;-61
2022/09/22 05:57:31;;;;;;;6.83;5.40;;;10.30;1.00;;;;;;4994214;28;20246;-61
2022/09/22 05:59:56;;;;;;;6.20;5.60;;;10.30;1.00;;;;;;4991562;28;20473;-60
2022/09/22 06:02:23;;;;;;;10.60;6.00;;;10.30;1.00;;;;;;4991563;28;20439;-61
2022/09/22 06:04:49;;;;;;;5.67;5.17;;;10.30;1.00;;;;;;4991966;28;20457;-60
2022/09/22 06:07:14;;;;;;;5.47;4.97;;;10.40;1.00;;;;;;4995155;28;20452;-62
2022/09/22 06:09:40;;;;;;;6.10;5.50;;;10.40;1.00;;;;;;4990078;28;20460;-61
2022/09/22 06:12:07;;;;;;;8.20;7.40;;;10.40;1.00;;;;;;4985551;28;20200;-60
2022/09/22 06:14:33;;;;;;;8.63;6.87;;;10.40;1.00;;;;;;4995256;28;20263;-60
2022/09/22 06:16:59;;;;;;;7.67;6.87;;;10.50;1.00;;;;;;4991731;28;20447;-61
2022/09/22 06:19:25;;;;;;;8.20;7.10;;;10.60;1.00;;;;;;4992271;28;20447;-60
2022/09/22 06:21:51;;;;;;;8.57;7.50;;;10.60;1.00;;;;;;4992740;28;20178;-60
2022/09/22 06:24:17;;;;;;;7.97;7.17;;;10.70;1.00;;;;;;4991898;28;20218;-60
2022/09/22 06:26:43;;;;;;;11.63;7.00;;;10.80;1.00;;;;;;4990813;28;20917;-61
2022/09/22 06:29:09;;;;;;;10.40;7.90;;;10.90;1.00;;;;;;4991992;28;20202;-60
2022/09/22 06:31:35;;;;;;;8.50;7.60;;;10.80;1.00;;;;;;4991691;28;20412;-60
2022/09/22 06:34:01;;;;;;;13.70;8.20;;;10.90;1.00;;;;;;4991293;28;20193;-59
2022/09/22 06:36:30;;;;;;;10.53;8.07;;;10.90;1.00;;;;;;4991451;28;20486;-60
2022/09/22 06:38:59;;;;;;;9.03;8.13;;;10.90;1.00;;;;;;4993073;28;20186;-58
2022/09/22 06:41:26;;;;;;;11.00;9.30;;;11.00;1.00;;;;;;4991178;28;20416;-59
2022/09/22 06:43:54;;;;;;;9.23;7.67;;;11.20;1.00;;;;;;4991277;28;20548;-60
2022/09/22 06:46:25;;;;;;;10.17;8.37;;;11.30;1.00;;;;;;4992022;28;20456;-59
2022/09/22 06:48:56;;;;;;;10.33;9.03;;;11.30;1.00;;;;;;4991687;28;20441;-59
2022/09/22 06:51:26;;;;;;;11.43;9.97;;;11.40;1.00;;;;;;4990179;28;20453;-59
2022/09/22 06:53:56;;;;;;;9.80;8.80;;;11.50;1.00;;;;;;4990740;28;20771;-59
2022/09/22 06:56:24;;;;;;;13.93;9.90;;;11.50;1.00;;;;;;4992164;28;20431;-60
2022/09/22 06:58:54;;;;;;;9.00;8.17;;;11.60;1.00;;;;;;4992010;28;20423;-60
2022/09/22 07:01:21;;;;;;;10.60;8.77;;;11.80;1.00;;;;;;5004590;28;20443;-60
2022/09/22 07:03:46;;;;;;;9.60;8.70;;;11.90;1.00;;;;;;5011320;28;20774;-60
2022/09/22 07:06:16;;;;;;;9.50;8.60;;;11.90;1.00;;;;;;5007209;28;20441;-61
2022/09/22 07:08:42;;;;;;;11.03;8.80;;;11.90;1.00;;;;;;4988507;28;20187;-60
2022/09/22 07:11:09;;;;;;;10.50;9.23;;;11.80;1.00;;;;;;4990669;28;20787;-60
2022/09/22 07:13:37;;;;;;;13.13;9.30;;;11.80;1.00;;;;;;4991472;28;20437;-60
2022/09/22 07:16:15;;;;;;;12.53;11.33;;;11.80;1.00;;;;;;4991636;28;20443;-60
2022/09/22 07:18:43;;;;;;;10.83;9.30;;;11.90;1.00;;;;;;4991994;28;20963;-60
2022/09/22 07:21:11;;;;;;;10.93;9.80;;;12.00;1.00;;;;;;4991120;28;20446;-60
2022/09/22 07:23:37;;;;;;;13.10;10.50;;;12.00;1.00;;;;;;4991313;28;20436;-60
2022/09/22 07:26:05;;;;;;;10.50;9.43;;;12.10;1.00;;;;;;4991415;28;20777;-60
2022/09/22 07:28:33;;;;;;;11.17;9.87;;;12.20;1.00;;;;;;4991333;28;20939;-59
2022/09/22 07:31:17;;;;;;;10.27;9.37;;;12.30;1.00;;;;;;4991526;28;20441;-60
2022/09/22 07:33:44;;;;;;;11.40;10.30;;;12.50;1.00;;;;;;4991320;28;20408;-61
2022/09/22 07:36:18;;;;;;;12.17;10.90;;;12.60;1.00;;;;;;4991235;28;20519;-60
2022/09/22 07:38:48;;;;;;;10.63;9.63;;;12.70;1.00;;;;;;4991197;28;20463;-61
2022/09/22 07:41:19;;;;;;;10.67;9.57;;;12.80;1.00;;;;;;4990856;28;20949;-60
2022/09/22 07:43:48;;;;;;;10.97;9.70;;;12.90;1.00;;;;;;4990740;28;20484;-60
2022/09/22 07:46:13;;;;;;;12.43;10.50;;;13.00;1.00;;;;;;4991117;28;20544;-61
2022/09/22 07:48:46;;;;;;;10.43;8.77;;;13.20;1.00;;;;;;4989711;28;20439;-61
2022/09/22 07:51:18;;;;;;;10.77;9.67;;;13.40;1.00;;;;;;4991198;28;20197;-62
2022/09/22 07:53:49;;;;;;;10.93;9.93;;;13.70;1.00;;;;;;4991092;28;20441;-60
2022/09/22 07:56:17;;;;;;;11.97;10.37;;;13.90;1.00;;;;;;4990749;28;20520;-60
2022/09/22 07:58:50;;;;;;;10.60;9.00;;;14.10;1.00;;;;;;4990607;28;20488;-61
2022/09/22 08:01:20;;;;;;;9.83;8.80;;;14.30;1.00;;;;;;4990925;28;20416;-60
2022/09/22 08:03:49;;;;;;;9.70;8.70;;;14.70;1.00;;;;;;4990713;28;20415;-60
2022/09/22 08:06:18;;;;;;;9.60;8.70;;;15.20;1.00;;;;;;4990210;28;20411;-60
2022/09/22 08:08:47;;;;;;;10.13;8.40;;;15.30;1.00;;;;;;4990326;28;20486;-60
2022/09/22 08:11:16;;;;;;;8.60;7.83;;;15.40;1.00;;;;;;4990567;28;22050;-59
2022/09/22 08:13:47;;;;;;;10.20;9.23;;;15.30;1.00;;;;;;4989852;28;20445;-59
2022/09/22 08:16:13;;;;;;;11.00;9.93;;;15.00;1.00;;;;;;4991057;28;20537;-59
2022/09/22 08:18:38;;;;;;;9.40;8.40;;;14.90;1.00;;;;;;4990219;28;20511;-60
2022/09/22 08:21:05;;;;;;;8.47;7.67;;;14.80;1.00;;;;;;4989986;28;20213;-61
2022/09/22 08:23:31;;;;;;;9.10;8.30;;;14.70;1.00;;;;;;4990823;28;20667;-59
2022/09/22 08:26:06;;;;;;;8.30;7.60;;;14.90;1.00;;;;;;4990471;28;20451;-60
2022/09/22 08:28:33;;;;;;;7.20;6.60;;;15.10;1.00;;;;;;4990516;28;20182;-60
2022/09/22 08:30:59;;;;;;;10.00;8.90;;;15.30;1.00;;;;;;4990502;28;20478;-60
2022/09/22 08:33:26;;;;;;;9.67;7.63;;;15.00;1.00;;;;;;4990331;28;20442;-60
2022/09/22 08:35:57;;;;;;;8.50;7.73;;;14.90;1.00;;;;;;4990492;28;20830;-60
2022/09/22 08:38:23;;;;;;;12.33;8.37;;;14.90;1.00;;;;;;4990699;28;20476;-60
2022/09/22 08:41:14;;;;;;;8.90;8.20;;;15.10;1.00;;;;;;4990083;28;20504;-60
2022/09/22 08:43:53;;;;;;;8.80;8.00;;;15.30;1.00;;;;;;4989812;28;20489;-60
2022/09/22 08:46:19;;;;;;;8.40;7.60;;;15.60;1.00;;;;;;4990367;28;20444;-61
2022/09/22 08:51:53;;;;;;;8.20;7.40;;;16.20;1.00;;;;;;4990108;28;20480;-60
2022/09/22 08:54:30;;;;;;;7.93;7.30;;;16.20;1.00;;;;;;4990707;28;20452;-59
2022/09/22 08:57:30;;;;;;;9.13;8.30;;;16.30;1.00;;;;;;4990221;28;20467;-61
2022/09/22 09:00:11;;;;;;;8.20;7.40;;;16.50;1.00;;;;;;4993592;28;20572;-61
2022/09/22 09:02:49;;;;;;;8.00;7.30;;;16.90;1.00;;;;;;4994159;28;20587;-61
2022/09/22 09:05:44;;;;;;;9.30;7.03;;;17.60;1.00;;;;;;4994272;28;20467;-60
2022/09/22 09:08:36;;;;;;;8.80;8.00;;;18.20;1.00;;;;;;4993849;28;20527;-60
2022/09/22 09:11:19;;;;;;;8.60;7.77;;;18.50;1.00;;;;;;4993689;28;20453;-60
2022/09/22 09:14:22;;;;;;;8.77;8.03;;;18.50;1.00;;;;;;4993897;28;20441;-60
2022/09/22 09:17:00;;;;;;;9.07;8.17;;;18.60;1.00;;;;;;4993643;28;20444;-60
2022/09/22 09:19:39;;;;;;;8.67;7.80;;;18.80;1.00;;;;;;4993378;28;20475;-60
2022/09/22 09:22:23;;;;;;;8.73;7.77;;;19.10;1.00;;;;;;4993267;28;20531;-59
2022/09/22 09:24:57;;;;;;;8.57;7.77;;;19.40;1.00;;;;;;4993321;28;20468;-61
2022/09/22 09:27:27;;;;;;;8.50;7.80;;;19.70;1.00;;;;;;4993587;28;21122;-60
2022/09/22 09:30:02;;;;;;;9.83;8.93;;;19.50;1.00;;;;;;4993827;28;20491;-61
2022/09/22 09:32:52;;;;;;;8.63;7.83;;;18.70;1.00;;;;;;4993609;28;20798;-59
2022/09/22 09:35:25;;;;;;;8.67;7.90;;;18.20;1.00;;;;;;4993525;28;20496;-60
2022/09/22 09:37:53;;;;;;;11.23;8.87;;;17.80;1.00;;;;;;4993661;28;20480;-60
2022/09/22 09:40:20;;;;;;;8.30;7.37;;;17.70;1.00;;;;;;4975327;28;20447;-60
2022/09/22 09:42:57;;;;;;;8.20;7.13;;;17.50;1.00;;;;;;4992973;28;20536;-60
2022/09/22 09:45:30;;;;;;;6.73;6.23;;;17.60;1.00;;;;;;4993172;28;20907;-62
2022/09/22 09:48:20;;;;;;;7.67;6.97;;;17.60;1.00;;;;;;4993081;28;20460;-60
2022/09/22 09:50:46;;;;;;;7.80;7.10;;;17.80;1.00;;;;;;4996840;28;20447;-59
2022/09/22 09:53:29;;;;;;;7.07;6.47;;;18.30;1.00;;;;;;5012743;28;20436;-59
2022/09/22 09:55:54;;;;;;;7.50;6.63;;;18.90;1.00;;;;;;5012552;28;20635;-60
2022/09/22 10:01:21;;;;;;;7.47;6.87;;;19.60;1.00;;;;;;4913426;29;20199;-60
2022/09/22 10:03:53;;;;;;;6.87;6.23;;;19.90;1.00;;;;;;4967011;28;20516;-60
2022/09/22 10:06:24;;;;;;;6.50;6.00;;;19.90;1.00;;;;;;4999819;28;20185;-60
2022/09/22 10:08:50;;;;;;;6.60;6.07;;;19.50;1.00;;;;;;4977974;28;21053;-61
2022/09/22 10:11:28;;;;;;;6.07;5.23;;;19.00;1.00;;;;;;4991833;28;20786;-61
2022/09/22 10:13:55;;;;;;;8.33;5.53;;;18.70;1.00;;;;;;4993089;28;20468;-60
2022/09/22 10:16:21;;;;;;;5.70;5.20;;;18.70;1.00;;;;;;4992627;28;20411;-59
2022/09/22 10:18:50;;;;;;;5.63;5.13;;;19.20;1.00;;;;;;4992670;28;20453;-60
2022/09/22 10:21:21;;;;;;;5.10;4.60;;;19.80;1.00;;;;;;4992654;28;20508;-60
2022/09/22 10:23:48;;;;;;;5.10;4.63;;;20.30;1.00;;;;;;4974790;28;20449;-60
2022/09/22 10:26:15;;;;;;;5.50;4.57;;;20.60;1.00;;;;;;4992136;28;20955;-60
2022/09/22 10:28:41;;;;;;;5.47;4.20;;;20.70;1.00;;;;;;4992485;28;20415;-60
2022/09/22 10:31:18;;;;;;;4.07;3.77;;;20.30;1.00;;;;;;4992608;28;20445;-60
2022/09/22 10:33:55;;;;;;;3.90;3.33;;;19.90;1.00;;;;;;4992437;28;20979;-60
2022/09/22 10:36:24;;;;;;;3.43;3.13;;;19.50;1.00;;;;;;4992516;28;20411;-60
2022/09/22 10:38:52;;;;;;;3.63;3.13;;;19.40;1.00;;;;;;4992292;28;20499;-59
2022/09/22 10:41:26;;;;;;;3.10;2.90;;;19.10;1.00;;;;;;4992305;28;20467;-60
2022/09/22 10:44:15;;;;;;;2.43;2.03;;;19.40;1.00;;;;;;4992188;28;20432;-60
2022/09/22 10:46:56;;;;;;;3.23;2.40;;;19.90;1.00;;;;;;5000345;28;20414;-60
2022/09/22 10:49:41;;;;;;;2.50;2.30;;;19.50;1.00;;;;;;4991984;28;20420;-59
2022/09/22 10:52:28;;;;;;;3.30;2.83;;;19.00;1.00;;;;;;4992152;28;20977;-60
2022/09/22 10:55:20;;;;;;;4.67;2.50;;;18.60;1.00;;;;;;4974689;28;20447;-60
2022/09/22 10:58:07;;;;;;;2.67;1.83;;;18.20;1.00;;;;;;4992101;28;20441;-60
2022/09/22 11:00:38;;;;;;;2.57;2.20;;;17.90;1.00;;;;;;4991938;28;20455;-60
2022/09/22 11:03:21;;;;;;;2.90;1.90;;;17.70;1.00;;;;;;4992101;28;20529;-60
2022/09/22 11:14:31;;;;;;;1.83;1.50;;;17.80;1.00;;;;;;4991338;28;20445;-60
2022/09/22 11:17:39;;;;;;;1.33;1.23;;;18.30;1.00;;;;;;4991647;28;20502;-60
2022/09/22 11:20:39;;;;;;;1.77;1.67;;;18.40;1.00;;;;;;4991403;28;20988;-60
2022/09/22 11:23:36;;;;;;;1.57;1.20;;;18.70;1.00;;;;;;4991594;28;20461;-59
2022/09/22 11:26:07;;;;;;;3.77;1.67;;;18.40;1.00;;;;;;4991630;28;20445;-60
2022/09/22 11:29:06;;;;;;;2.33;1.60;;;18.10;1.00;;;;;;4991749;28;20911;-59
2022/09/22 11:31:36;;;;;;;2.93;1.80;;;18.00;1.00;;;;;;4987362;28;20550;-61
2022/09/22 11:34:42;;;;;;;1.40;1.30;;;18.10;1.00;;;;;;4991103;28;20988;-59
2022/09/22 11:37:45;;;;;;;1.70;1.60;;;18.20;1.00;;;;;;4991435;28;20438;-60
2022/09/22 11:40:19;;;;;;;1.60;1.50;;;18.30;1.00;;;;;;4990853;28;20472;-58
2022/09/22 11:43:20;;;;;;;1.43;1.33;;;18.50;1.00;;;;;;4990553;28;20475;-59
2022/09/22 11:45:52;;;;;;;1.73;1.20;;;18.60;1.00;;;;;;4968506;28;20958;-60
2022/09/22 11:48:43;;;;;;;1.23;1.13;;;18.80;1.00;;;;;;5010588;28;20779;-60
2022/09/22 11:51:30;;;;;;;1.87;1.10;;;19.10;1.00;;;;;;5010096;28;20468;-60
2022/09/22 11:54:16;;;;;;;1.80;0.83;;;19.50;1.00;;;;;;4991150;28;20437;-60
2022/09/22 11:56:48;;;;;;;2.53;1.10;;;19.60;1.00;;;;;;4990383;28;20422;-60
2022/09/22 11:59:19;;;;;;;1.20;1.00;;;19.70;1.00;;;;;;4994012;28;20432;-59
2022/09/22 12:01:47;;;;;;;1.50;1.00;;;20.00;1.00;;;;;;5010758;28;20471;-60
2022/09/22 12:04:36;;;;;;;1.53;1.10;;;20.30;1.00;;;;;;4989775;28;20447;-59
2022/09/22 12:07:09;;;;;;;1.17;0.80;;;20.50;1.00;;;;;;5010319;28;20507;-61
2022/09/22 12:09:48;;;;;;;3.23;1.23;;;20.70;1.00;;;;;;5010429;28;20537;-60
2022/09/22 12:12:18;;;;;;;1.20;1.10;;;20.50;1.00;;;;;;4994181;28;20496;-60
2022/09/22 12:14:47;;;;;;;1.73;1.37;;;20.70;1.00;;;;;;4990659;28;20441;-59
2022/09/22 12:17:20;;;;;;;2.17;1.43;;;20.70;1.00;;;;;;4992743;28;20443;-61
2022/09/22 12:19:55;;;;;;;4.30;1.30;;;20.80;1.00;;;;;;5010424;28;20721;-60
2022/09/22 12:22:50;;;;;;;1.40;1.30;;;21.00;1.00;;;;;;4996022;28;20420;-61
2022/09/22 12:25:50;;;;;;;1.23;1.13;;;20.20;1.00;;;;;;4990686;28;20912;-60
2022/09/22 12:28:18;;;;;;;1.20;1.10;;;18.90;1.00;;;;;;4990785;28;20795;-60
2022/09/22 12:31:05;;;;;;;1.87;1.77;;;18.00;1.00;;;;;;4990474;28;20459;-60
2022/09/22 12:33:36;;;;;;;1.70;1.60;;;17.70;1.00;;;;;;4991803;28;20400;-60
2022/09/22 12:36:03;;;;;;;1.30;1.20;;;17.60;1.00;;;;;;4994824;28;20988;-60
2022/09/22 12:38:30;;;;;;;2.17;1.33;;;17.40;1.00;;;;;;4994331;28;20433;-60
2022/09/22 12:40:58;;;;;;;1.70;1.13;;;17.20;1.00;;;;;;4994401;28;20940;-60
2022/09/22 12:43:26;;;;;;;1.60;1.50;;;16.90;1.00;;;;;;5012903;28;20455;-60
2022/09/22 12:45:55;;;;;;;4.03;1.30;;;16.90;1.00;;;;;;5014057;28;20519;-60
2022/09/22 12:48:28;;;;;;;3.63;1.40;;;17.00;1.00;;;;;;5014043;28;20435;-60
2022/09/22 12:51:15;;;;;;;2.30;1.50;;;17.60;1.00;;;;;;5008286;28;20451;-60
2022/09/22 12:53:40;;;;;;;1.67;1.57;;;17.40;1.00;;;;;;4994231;28;20444;-60
2022/09/22 12:56:43;;;;;;;1.73;1.50;;;17.50;1.00;;;;;;4994308;28;20465;-60
2022/09/22 12:59:37;;;;;;;2.90;1.30;;;17.60;1.00;;;;;;4993754;28;20627;-59
2022/09/22 13:02:20;;;;;;;1.90;1.70;;;17.90;1.00;;;;;;4994499;28;20425;-60
2022/09/22 13:04:48;;;;;;;2.17;1.60;;;18.00;1.00;;;;;;5000070;28;20455;-61
2022/09/22 13:07:32;;;;;;;1.73;1.60;;;18.00;1.00;;;;;;4994276;28;20515;-61
2022/09/22 13:10:19;;;;;;;3.70;1.50;;;17.90;1.00;;;;;;4999357;28;20437;-59
2022/09/22 13:13:04;;;;;;;1.40;1.30;;;17.90;1.00;;;;;;5005290;28;20790;-60
2022/09/22 13:15:46;;;;;;;1.37;1.27;;;18.00;1.00;;;;;;5014963;28;21154;-58
2022/09/22 13:18:36;;;;;;;3.40;1.40;;;17.80;1.00;;;;;;4989685;28;20441;-54
2022/09/22 13:21:11;;;;;;;2.57;1.20;;;18.00;1.00;;;;;;4993658;28;20495;-56
2022/09/22 13:23:56;;;;;;;1.73;1.23;;;18.30;1.00;;;;;;4993626;28;20782;-56
2022/09/22 13:26:30;;;;;;;1.50;1.20;;;18.60;1.00;;;;;;4993819;28;20445;-56
2022/09/22 13:28:59;;;;;;;2.23;1.40;;;18.80;1.00;;;;;;4993554;28;20942;-54
2022/09/22 13:31:25;;;;;;;2.30;1.40;;;19.00;1.00;;;;;;4993842;28;20440;-57
2022/09/22 13:33:51;;;;;;;1.57;1.47;;;19.20;1.00;;;;;;4993238;28;20980;-56
2022/09/22 13:36:19;;;;;;;1.77;1.53;;;19.20;1.00;;;;;;4993477;28;20205;-54